SBPA/POA METAR and TAF weather

Enter ICAO airport designator
Station Type Date Time Source
SBPA METAR 2019/02/16 02:00 UTC NOAA

SBPA 160200Z 12009KT CAVOK 23/20 Q1011


Station Type Date Time Source
SBPA Decoded METAR 2019/02/16 02:00 UTC NOAA

Porto Alegre Aero-Porto , Brazil (SBPA) 30-00S 051-11W 3M
Feb 15, 2019 - 09:00 PM EST / 2019.02.16 0200 UTC
Wind: from the ESE (120 degrees) at 10 MPH (9 KT):0
Visibility: greater than 7 mile(s):0
Temperature: 73 F (23 C)
Dew Point: 68 F (20 C)
Relative Humidity: 83%
Pressure (altimeter): 29.85 in. Hg (1011 hPa)
ob: SBPA 160200Z 12009KT CAVOK 23/20 Q1011
cycle: 2

Station Type Date Time Source
SBPA TAF 2019/02/16 06:25 UTC NOAA

TAF SBPA 160100Z 1606/1706 12005KT 9999 FEW035 TN20/1608Z TX28/1618Z
BECMG 1614/1616 12010KT SCT040
BECMG 1622/1624 CAVOK
RMK PDW


Example: see airport list